createdAt,value
2024-01-24T00:14:29.349Z,2.10
2024-01-24T00:29:32.820Z,1.93
2024-01-24T00:44:36.943Z,2.00
2024-01-24T00:59:39.360Z,2.03
2024-01-24T01:14:42.252Z,1.73
2024-01-24T01:29:44.716Z,1.40
2024-01-24T01:44:47.845Z,1.40
2024-01-24T01:59:50.353Z,0.90
2024-01-24T02:14:52.806Z,1.07
2024-01-24T02:29:59.027Z,0.90
2024-01-24T02:45:01.521Z,0.70
2024-01-24T03:00:06.493Z,0.77
2024-01-24T03:15:09.351Z,0.60
2024-01-24T03:30:12.476Z,0.70
2024-01-24T03:45:15.078Z,0.60
2024-01-24T04:00:17.855Z,0.20
2024-01-24T04:15:20.377Z,0.20
2024-01-24T04:30:23.622Z,0.30
2024-01-24T04:45:26.440Z,0.30
2024-01-24T05:00:29.041Z,0.30
2024-01-24T05:15:31.769Z,0.40
2024-01-24T05:30:36.106Z,1.10
2024-01-24T05:45:39.714Z,1.20
2024-01-24T06:00:42.305Z,1.53
2024-01-24T06:15:45.410Z,2.87
2024-01-24T06:30:48.323Z,3.23
2024-01-24T06:45:50.876Z,2.70
2024-01-24T07:00:54.263Z,2.80
2024-01-24T07:15:57.651Z,3.43
2024-01-24T07:31:00.252Z,4.03
2024-01-24T07:46:03.264Z,3.40
2024-01-24T08:01:11.212Z,3.70
2024-01-24T08:16:13.982Z,4.27
2024-01-24T08:31:16.493Z,4.60
2024-01-24T08:46:19.299Z,4.77
2024-01-24T09:01:22.345Z,4.90
2024-01-24T09:16:27.597Z,4.17
2024-01-24T09:31:31.093Z,4.67
2024-01-24T09:46:37.601Z,4.57
2024-01-24T10:01:40.941Z,5.60
2024-01-24T10:16:43.878Z,5.07
2024-01-24T10:31:46.384Z,5.60
2024-01-24T10:46:51.631Z,5.00
2024-01-24T11:01:55.219Z,5.40
2024-01-24T11:17:00.307Z,4.30
2024-01-24T11:32:04.134Z,4.80
2024-01-24T11:47:08.494Z,5.17
2024-01-24T12:02:11.130Z,5.23
2024-01-24T12:17:13.798Z,5.03
2024-01-24T12:32:16.822Z,5.17
2024-01-24T12:47:19.632Z,5.07
2024-01-24T13:02:22.387Z,5.13
2024-01-24T13:17:25.130Z,4.97
2024-01-24T13:32:27.837Z,5.33
2024-01-24T13:47:30.401Z,4.90
2024-01-24T14:02:33.044Z,4.90
2024-01-24T14:17:35.808Z,4.47
2024-01-24T14:32:39.606Z,6.03
2024-01-24T14:47:42.765Z,6.50
2024-01-24T15:02:45.503Z,5.27
2024-01-24T15:17:50.626Z,5.57
2024-01-24T15:32:54.882Z,4.50
2024-01-24T15:47:57.786Z,4.40
2024-01-24T16:03:01.097Z,5.53
2024-01-24T16:18:05.071Z,5.20
2024-01-24T16:33:08.102Z,5.73
2024-01-24T16:48:10.846Z,6.20
2024-01-24T17:03:13.554Z,5.93
2024-01-24T17:18:16.497Z,5.97
2024-01-24T17:33:20.034Z,4.73
2024-01-24T17:48:22.984Z,5.90
2024-01-24T18:03:26.107Z,7.03
2024-01-24T18:18:29.088Z,5.43
2024-01-24T18:33:32.390Z,5.20
2024-01-24T18:48:35.218Z,7.67
2024-01-24T19:03:38.673Z,7.03
2024-01-24T19:18:46.264Z,6.57
2024-01-24T19:33:51.996Z,6.77
2024-01-24T19:48:55.720Z,6.70
2024-01-24T20:03:59.280Z,6.50
2024-01-24T20:19:02.624Z,6.10
2024-01-24T20:34:05.908Z,6.40
2024-01-24T20:49:09.069Z,6.07
2024-01-24T21:04:12.138Z,6.80
2024-01-24T21:19:18.006Z,5.70
2024-01-24T21:34:21.738Z,5.83
2024-01-24T21:49:24.465Z,6.93
2024-01-24T22:04:27.341Z,6.60
2024-01-24T22:19:30.161Z,6.47
2024-01-24T22:34:32.984Z,6.67
2024-01-24T22:49:35.730Z,6.90
2024-01-24T23:04:38.758Z,6.70
2024-01-24T23:19:41.719Z,6.87
2024-01-24T23:34:45.448Z,7.13
2024-01-24T23:49:48.615Z,7.23
